sensor_id;sensor_type;location;lat;lon;timestamp;P1;durP1;ratioP1;P2;durP2;ratioP2
8536;SDS011;4306;50.210;10.628;2023-04-22T00:02:22;5.13;;;3.50;;
8536;SDS011;4306;50.210;10.628;2023-04-22T00:04:48;9.10;;;3.63;;
8536;SDS011;4306;50.210;10.628;2023-04-22T00:07:17;8.93;;;3.67;;
8536;SDS011;4306;50.210;10.628;2023-04-22T00:09:44;6.88;;;3.60;;
8536;SDS011;4306;50.210;10.628;2023-04-22T00:12:11;6.57;;;3.63;;
8536;SDS011;4306;50.210;10.628;2023-04-22T00:14:38;6.40;;;3.80;;
8536;SDS011;4306;50.210;10.628;2023-04-22T00:17:05;5.10;;;3.15;;
8536;SDS011;4306;50.210;10.628;2023-04-22T00:19:31;7.72;;;3.53;;
8536;SDS011;4306;50.210;10.628;2023-04-22T00:21:58;6.35;;;3.90;;
8536;SDS011;4306;50.210;10.628;2023-04-22T00:24:27;7.22;;;3.75;;
8536;SDS011;4306;50.210;10.628;2023-04-22T00:26:53;8.93;;;3.80;;
8536;SDS011;4306;50.210;10.628;2023-04-22T00:29:20;6.82;;;3.58;;
8536;SDS011;4306;50.210;10.628;2023-04-22T00:31:47;5.20;;;3.55;;
8536;SDS011;4306;50.210;10.628;2023-04-22T00:34:14;6.50;;;3.42;;
8536;SDS011;4306;50.210;10.628;2023-04-22T00:36:42;7.45;;;3.63;;
8536;SDS011;4306;50.210;10.628;2023-04-22T00:39:10;8.30;;;3.97;;
8536;SDS011;4306;50.210;10.628;2023-04-22T00:41:39;6.78;;;3.88;;
8536;SDS011;4306;50.210;10.628;2023-04-22T00:44:07;8.20;;;4.10;;
8536;SDS011;4306;50.210;10.628;2023-04-22T00:46:35;8.38;;;4.07;;
8536;SDS011;4306;50.210;10.628;2023-04-22T00:49:02;7.43;;;4.22;;
8536;SDS011;4306;50.210;10.628;2023-04-22T00:51:30;7.32;;;3.53;;
8536;SDS011;4306;50.210;10.628;2023-04-22T00:53:57;5.57;;;3.63;;
8536;SDS011;4306;50.210;10.628;2023-04-22T00:56:26;7.95;;;3.95;;
8536;SDS011;4306;50.210;10.628;2023-04-22T00:58:54;8.10;;;4.03;;
8536;SDS011;4306;50.210;10.628;2023-04-22T01:01:22;8.57;;;3.92;;
8536;SDS011;4306;50.210;10.628;2023-04-22T01:03:49;5.85;;;3.55;;
8536;SDS011;4306;50.210;10.628;2023-04-22T01:06:17;6.18;;;3.67;;
8536;SDS011;4306;50.210;10.628;2023-04-22T01:08:45;6.25;;;3.83;;
8536;SDS011;4306;50.210;10.628;2023-04-22T01:11:12;6.80;;;3.90;;
8536;SDS011;4306;50.210;10.628;2023-04-22T01:13:39;5.70;;;3.40;;
8536;SDS011;4306;50.210;10.628;2023-04-22T01:16:07;5.50;;;3.50;;
8536;SDS011;4306;50.210;10.628;2023-04-22T01:18:35;5.55;;;3.53;;
8536;SDS011;4306;50.210;10.628;2023-04-22T01:21:03;5.28;;;3.60;;
8536;SDS011;4306;50.210;10.628;2023-04-22T01:23:32;6.18;;;3.72;;
8536;SDS011;4306;50.210;10.628;2023-04-22T01:25:59;8.68;;;3.63;;
8536;SDS011;4306;50.210;10.628;2023-04-22T01:28:26;5.55;;;3.58;;
8536;SDS011;4306;50.210;10.628;2023-04-22T01:30:53;5.75;;;3.53;;
8536;SDS011;4306;50.210;10.628;2023-04-22T01:33:21;5.35;;;3.60;;
8536;SDS011;4306;50.210;10.628;2023-04-22T01:35:47;6.10;;;3.53;;
8536;SDS011;4306;50.210;10.628;2023-04-22T01:38:14;6.40;;;3.70;;
8536;SDS011;4306;50.210;10.628;2023-04-22T01:40:43;7.20;;;3.60;;
8536;SDS011;4306;50.210;10.628;2023-04-22T01:43:09;8.82;;;3.72;;
8536;SDS011;4306;50.210;10.628;2023-04-22T01:45:36;6.70;;;4.05;;
8536;SDS011;4306;50.210;10.628;2023-04-22T01:48:03;5.75;;;3.42;;
8536;SDS011;4306;50.210;10.628;2023-04-22T01:50:31;7.90;;;3.78;;
8536;SDS011;4306;50.210;10.628;2023-04-22T01:52:58;8.85;;;3.83;;
8536;SDS011;4306;50.210;10.628;2023-04-22T01:55:25;6.60;;;3.60;;
8536;SDS011;4306;50.210;10.628;2023-04-22T01:57:53;6.28;;;3.67;;
8536;SDS011;4306;50.210;10.628;2023-04-22T02:00:20;8.02;;;3.80;;
8536;SDS011;4306;50.210;10.628;2023-04-22T02:02:47;7.15;;;3.50;;
8536;SDS011;4306;50.210;10.628;2023-04-22T02:05:14;8.65;;;3.95;;
8536;SDS011;4306;50.210;10.628;2023-04-22T02:07:41;8.50;;;4.00;;
8536;SDS011;4306;50.210;10.628;2023-04-22T02:10:08;5.15;;;3.50;;
8536;SDS011;4306;50.210;10.628;2023-04-22T02:12:36;9.50;;;3.78;;
8536;SDS011;4306;50.210;10.628;2023-04-22T02:15:05;8.77;;;4.10;;
8536;SDS011;4306;50.210;10.628;2023-04-22T02:17:32;5.40;;;3.83;;
8536;SDS011;4306;50.210;10.628;2023-04-22T02:19:59;8.32;;;4.10;;
8536;SDS011;4306;50.210;10.628;2023-04-22T02:22:27;6.63;;;4.18;;
8536;SDS011;4306;50.210;10.628;2023-04-22T02:24:54;8.45;;;4.85;;
8536;SDS011;4306;50.210;10.628;2023-04-22T02:27:21;7.32;;;4.03;;
8536;SDS011;4306;50.210;10.628;2023-04-22T02:29:48;6.13;;;3.80;;
8536;SDS011;4306;50.210;10.628;2023-04-22T02:32:16;5.65;;;3.78;;
8536;SDS011;4306;50.210;10.628;2023-04-22T02:34:43;6.72;;;3.67;;
8536;SDS011;4306;50.210;10.628;2023-04-22T02:37:11;6.88;;;3.58;;
8536;SDS011;4306;50.210;10.628;2023-04-22T02:39:38;7.38;;;3.90;;
8536;SDS011;4306;50.210;10.628;2023-04-22T02:42:05;5.55;;;3.97;;
8536;SDS011;4306;50.210;10.628;2023-04-22T02:44:32;8.40;;;4.10;;
8536;SDS011;4306;50.210;10.628;2023-04-22T02:46:58;5.75;;;3.58;;
8536;SDS011;4306;50.210;10.628;2023-04-22T02:49:29;6.97;;;3.97;;
8536;SDS011;4306;50.210;10.628;2023-04-22T02:51:56;5.68;;;3.65;;
8536;SDS011;4306;50.210;10.628;2023-04-22T02:54:23;8.45;;;4.20;;
8536;SDS011;4306;50.210;10.628;2023-04-22T02:56:49;8.50;;;3.88;;
8536;SDS011;4306;50.210;10.628;2023-04-22T02:59:16;7.70;;;3.70;;
8536;SDS011;4306;50.210;10.628;2023-04-22T03:01:43;6.82;;;3.97;;
8536;SDS011;4306;50.210;10.628;2023-04-22T03:04:10;9.85;;;3.78;;
8536;SDS011;4306;50.210;10.628;2023-04-22T03:06:39;6.30;;;3.90;;
8536;SDS011;4306;50.210;10.628;2023-04-22T03:09:06;5.45;;;3.75;;
8536;SDS011;4306;50.210;10.628;2023-04-22T03:11:33;5.43;;;3.63;;
8536;SDS011;4306;50.210;10.628;2023-04-22T03:14:00;7.18;;;3.83;;
8536;SDS011;4306;50.210;10.628;2023-04-22T03:16:27;8.35;;;4.07;;
8536;SDS011;4306;50.210;10.628;2023-04-22T03:18:54;7.45;;;3.85;;
8536;SDS011;4306;50.210;10.628;2023-04-22T03:21:20;9.70;;;3.83;;
8536;SDS011;4306;50.210;10.628;2023-04-22T03:23:49;7.00;;;3.65;;
8536;SDS011;4306;50.210;10.628;2023-04-22T03:26:15;5.82;;;3.70;;
8536;SDS011;4306;50.210;10.628;2023-04-22T03:28:42;7.63;;;4.40;;
8536;SDS011;4306;50.210;10.628;2023-04-22T03:31:09;9.93;;;4.30;;
8536;SDS011;4306;50.210;10.628;2023-04-22T03:33:36;5.18;;;3.55;;
8536;SDS011;4306;50.210;10.628;2023-04-22T03:36:04;5.03;;;3.60;;
8536;SDS011;4306;50.210;10.628;2023-04-22T03:38:31;7.60;;;4.28;;
8536;SDS011;4306;50.210;10.628;2023-04-22T03:40:59;5.47;;;3.47;;
8536;SDS011;4306;50.210;10.628;2023-04-22T03:43:25;6.93;;;3.65;;
8536;SDS011;4306;50.210;10.628;2023-04-22T03:45:52;9.65;;;4.35;;
8536;SDS011;4306;50.210;10.628;2023-04-22T03:48:19;7.38;;;4.35;;
8536;SDS011;4306;50.210;10.628;2023-04-22T03:50:46;7.47;;;3.97;;
8536;SDS011;4306;50.210;10.628;2023-04-22T03:53:13;7.68;;;4.00;;
8536;SDS011;4306;50.210;10.628;2023-04-22T03:55:40;5.97;;;3.88;;
8536;SDS011;4306;50.210;10.628;2023-04-22T03:58:08;6.07;;;3.85;;
8536;SDS011;4306;50.210;10.628;2023-04-22T04:00:35;5.82;;;3.58;;
8536;SDS011;4306;50.210;10.628;2023-04-22T04:03:01;6.40;;;3.28;;
8536;SDS011;4306;50.210;10.628;2023-04-22T04:05:28;5.53;;;3.47;;
8536;SDS011;4306;50.210;10.628;2023-04-22T04:07:55;10.13;;;4.00;;
8536;SDS011;4306;50.210;10.628;2023-04-22T04:10:22;6.75;;;3.75;;
8536;SDS011;4306;50.210;10.628;2023-04-22T04:12:49;8.02;;;4.30;;
8536;SDS011;4306;50.210;10.628;2023-04-22T04:15:17;7.03;;;4.40;;
8536;SDS011;4306;50.210;10.628;2023-04-22T04:17:45;5.80;;;3.33;;
8536;SDS011;4306;50.210;10.628;2023-04-22T04:20:12;7.45;;;3.55;;
8536;SDS011;4306;50.210;10.628;2023-04-22T04:22:39;7.03;;;4.18;;
8536;SDS011;4306;50.210;10.628;2023-04-22T04:25:06;4.90;;;3.63;;
8536;SDS011;4306;50.210;10.628;2023-04-22T04:27:34;11.43;;;4.30;;
8536;SDS011;4306;50.210;10.628;2023-04-22T04:30:03;9.13;;;4.18;;
8536;SDS011;4306;50.210;10.628;2023-04-22T04:32:32;7.18;;;4.07;;
8536;SDS011;4306;50.210;10.628;2023-04-22T04:34:59;7.93;;;3.85;;
8536;SDS011;4306;50.210;10.628;2023-04-22T04:37:27;7.10;;;3.97;;
8536;SDS011;4306;50.210;10.628;2023-04-22T04:39:54;8.27;;;4.15;;
8536;SDS011;4306;50.210;10.628;2023-04-22T04:42:25;6.30;;;3.80;;
8536;SDS011;4306;50.210;10.628;2023-04-22T04:44:54;8.82;;;3.83;;
8536;SDS011;4306;50.210;10.628;2023-04-22T04:47:22;10.18;;;4.63;;
8536;SDS011;4306;50.210;10.628;2023-04-22T04:49:51;8.68;;;4.18;;
8536;SDS011;4306;50.210;10.628;2023-04-22T04:52:18;6.60;;;4.10;;
8536;SDS011;4306;50.210;10.628;2023-04-22T04:54:45;6.80;;;4.13;;
8536;SDS011;4306;50.210;10.628;2023-04-22T04:57:12;7.43;;;4.40;;
8536;SDS011;4306;50.210;10.628;2023-04-22T04:59:38;8.73;;;4.18;;
8536;SDS011;4306;50.210;10.628;2023-04-22T05:02:05;8.43;;;4.30;;
8536;SDS011;4306;50.210;10.628;2023-04-22T05:04:32;6.47;;;4.07;;
8536;SDS011;4306;50.210;10.628;2023-04-22T05:07:00;7.13;;;4.40;;
8536;SDS011;4306;50.210;10.628;2023-04-22T05:09:29;9.27;;;4.22;;
8536;SDS011;4306;50.210;10.628;2023-04-22T05:12:01;6.30;;;4.78;;
8536;SDS011;4306;50.210;10.628;2023-04-22T05:14:27;8.35;;;4.30;;
8536;SDS011;4306;50.210;10.628;2023-04-22T05:16:55;7.05;;;3.45;;
8536;SDS011;4306;50.210;10.628;2023-04-22T05:19:22;5.90;;;3.22;;
8536;SDS011;4306;50.210;10.628;2023-04-22T05:21:49;7.50;;;3.63;;
8536;SDS011;4306;50.210;10.628;2023-04-22T05:24:17;6.53;;;3.58;;
8536;SDS011;4306;50.210;10.628;2023-04-22T05:26:45;8.85;;;4.00;;
8536;SDS011;4306;50.210;10.628;2023-04-22T05:29:12;10.27;;;4.03;;
8536;SDS011;4306;50.210;10.628;2023-04-22T05:31:39;7.90;;;4.43;;
8536;SDS011;4306;50.210;10.628;2023-04-22T05:34:05;9.38;;;4.00;;
8536;SDS011;4306;50.210;10.628;2023-04-22T05:36:32;7.95;;;3.65;;
8536;SDS011;4306;50.210;10.628;2023-04-22T05:38:59;5.80;;;3.25;;
8536;SDS011;4306;50.210;10.628;2023-04-22T05:41:27;5.53;;;3.38;;
8536;SDS011;4306;50.210;10.628;2023-04-22T05:43:54;4.85;;;3.03;;
8536;SDS011;4306;50.210;10.628;2023-04-22T05:46:21;5.25;;;3.50;;
8536;SDS011;4306;50.210;10.628;2023-04-22T05:48:48;7.07;;;3.53;;
8536;SDS011;4306;50.210;10.628;2023-04-22T05:51:15;5.22;;;3.50;;
8536;SDS011;4306;50.210;10.628;2023-04-22T05:53:42;5.32;;;3.30;;
8536;SDS011;4306;50.210;10.628;2023-04-22T05:56:09;6.40;;;3.80;;
8536;SDS011;4306;50.210;10.628;2023-04-22T05:58:37;5.97;;;3.60;;
8536;SDS011;4306;50.210;10.628;2023-04-22T06:01:04;7.32;;;3.88;;
8536;SDS011;4306;50.210;10.628;2023-04-22T06:03:30;5.13;;;3.63;;
8536;SDS011;4306;50.210;10.628;2023-04-22T06:05:57;6.38;;;3.53;;
8536;SDS011;4306;50.210;10.628;2023-04-22T06:08:24;6.45;;;3.50;;
8536;SDS011;4306;50.210;10.628;2023-04-22T06:10:52;9.02;;;3.80;;
8536;SDS011;4306;50.210;10.628;2023-04-22T06:13:18;5.88;;;3.33;;
8536;SDS011;4306;50.210;10.628;2023-04-22T06:15:49;7.93;;;3.30;;
8536;SDS011;4306;50.210;10.628;2023-04-22T06:18:16;6.47;;;3.50;;
8536;SDS011;4306;50.210;10.628;2023-04-22T06:20:43;8.85;;;3.88;;
8536;SDS011;4306;50.210;10.628;2023-04-22T06:23:09;8.65;;;4.25;;
8536;SDS011;4306;50.210;10.628;2023-04-22T06:25:36;11.82;;;6.68;;
8536;SDS011;4306;50.210;10.628;2023-04-22T06:28:03;10.27;;;5.43;;
8536;SDS011;4306;50.210;10.628;2023-04-22T06:30:30;11.57;;;5.55;;
8536;SDS011;4306;50.210;10.628;2023-04-22T06:32:58;10.07;;;5.30;;
8536;SDS011;4306;50.210;10.628;2023-04-22T06:35:25;9.82;;;4.18;;
8536;SDS011;4306;50.210;10.628;2023-04-22T06:37:52;7.97;;;4.38;;
8536;SDS011;4306;50.210;10.628;2023-04-22T06:40:19;8.85;;;4.22;;
8536;SDS011;4306;50.210;10.628;2023-04-22T06:42:46;6.78;;;3.80;;
8536;SDS011;4306;50.210;10.628;2023-04-22T06:45:13;6.32;;;3.63;;
8536;SDS011;4306;50.210;10.628;2023-04-22T06:47:40;9.35;;;3.90;;
8536;SDS011;4306;50.210;10.628;2023-04-22T06:50:09;5.45;;;3.50;;
8536;SDS011;4306;50.210;10.628;2023-04-22T06:52:36;6.88;;;3.40;;
8536;SDS011;4306;50.210;10.628;2023-04-22T06:55:03;5.70;;;3.25;;
8536;SDS011;4306;50.210;10.628;2023-04-22T06:57:30;6.25;;;3.17;;
8536;SDS011;4306;50.210;10.628;2023-04-22T06:59:57;6.07;;;3.47;;
8536;SDS011;4306;50.210;10.628;2023-04-22T07:02:24;7.30;;;3.17;;
8536;SDS011;4306;50.210;10.628;2023-04-22T07:04:50;5.72;;;3.20;;
8536;SDS011;4306;50.210;10.628;2023-04-22T07:07:19;6.20;;;2.88;;
8536;SDS011;4306;50.210;10.628;2023-04-22T07:09:46;5.70;;;3.80;;
8536;SDS011;4306;50.210;10.628;2023-04-22T07:12:13;7.18;;;3.13;;
8536;SDS011;4306;50.210;10.628;2023-04-22T07:14:41;7.38;;;3.33;;
8536;SDS011;4306;50.210;10.628;2023-04-22T07:17:09;8.10;;;3.42;;
8536;SDS011;4306;50.210;10.628;2023-04-22T07:19:37;6.13;;;3.45;;
8536;SDS011;4306;50.210;10.628;2023-04-22T07:22:07;4.78;;;3.05;;
8536;SDS011;4306;50.210;10.628;2023-04-22T07:24:35;6.63;;;3.40;;
8536;SDS011;4306;50.210;10.628;2023-04-22T07:27:03;6.95;;;3.33;;
8536;SDS011;4306;50.210;10.628;2023-04-22T07:29:30;6.50;;;4.25;;
8536;SDS011;4306;50.210;10.628;2023-04-22T07:31:58;5.40;;;3.17;;
8536;SDS011;4306;50.210;10.628;2023-04-22T07:34:25;6.60;;;3.15;;
8536;SDS011;4306;50.210;10.628;2023-04-22T07:36:52;5.03;;;3.33;;
8536;SDS011;4306;50.210;10.628;2023-04-22T07:39:20;5.20;;;3.30;;
8536;SDS011;4306;50.210;10.628;2023-04-22T07:41:48;7.25;;;3.10;;
8536;SDS011;4306;50.210;10.628;2023-04-22T07:44:15;7.32;;;3.22;;
8536;SDS011;4306;50.210;10.628;2023-04-22T07:46:45;10.23;;;3.78;;
8536;SDS011;4306;50.210;10.628;2023-04-22T07:49:12;5.57;;;2.95;;
8536;SDS011;4306;50.210;10.628;2023-04-22T07:51:40;6.68;;;3.42;;
8536;SDS011;4306;50.210;10.628;2023-04-22T07:54:08;5.32;;;3.35;;
8536;SDS011;4306;50.210;10.628;2023-04-22T07:56:35;7.05;;;3.25;;
8536;SDS011;4306;50.210;10.628;2023-04-22T07:59:03;7.50;;;3.70;;
8536;SDS011;4306;50.210;10.628;2023-04-22T08:01:30;6.25;;;3.05;;
8536;SDS011;4306;50.210;10.628;2023-04-22T08:03:57;6.00;;;3.72;;
8536;SDS011;4306;50.210;10.628;2023-04-22T08:06:24;6.93;;;3.72;;
8536;SDS011;4306;50.210;10.628;2023-04-22T08:08:52;5.63;;;3.15;;
8536;SDS011;4306;50.210;10.628;2023-04-22T08:11:18;5.80;;;3.25;;
8536;SDS011;4306;50.210;10.628;2023-04-22T08:13:45;4.82;;;3.13;;
8536;SDS011;4306;50.210;10.628;2023-04-22T08:16:13;8.32;;;3.65;;
8536;SDS011;4306;50.210;10.628;2023-04-22T08:18:41;6.25;;;3.35;;
8536;SDS011;4306;50.210;10.628;2023-04-22T08:21:07;7.00;;;3.47;;
8536;SDS011;4306;50.210;10.628;2023-04-22T08:23:34;8.07;;;3.45;;
8536;SDS011;4306;50.210;10.628;2023-04-22T08:26:01;6.75;;;3.20;;
8536;SDS011;4306;50.210;10.628;2023-04-22T08:28:29;5.30;;;3.55;;
8536;SDS011;4306;50.210;10.628;2023-04-22T08:30:56;6.20;;;3.30;;
8536;SDS011;4306;50.210;10.628;2023-04-22T08:33:24;5.43;;;3.50;;
8536;SDS011;4306;50.210;10.628;2023-04-22T08:35:51;6.20;;;3.58;;
8536;SDS011;4306;50.210;10.628;2023-04-22T08:38:18;6.55;;;3.30;;
8536;SDS011;4306;50.210;10.628;2023-04-22T08:40:45;6.38;;;3.03;;
8536;SDS011;4306;50.210;10.628;2023-04-22T08:43:12;7.93;;;3.33;;
8536;SDS011;4306;50.210;10.628;2023-04-22T08:45:40;5.18;;;3.38;;
8536;SDS011;4306;50.210;10.628;2023-04-22T08:48:07;7.85;;;3.50;;
8536;SDS011;4306;50.210;10.628;2023-04-22T08:50:37;6.35;;;3.40;;
8536;SDS011;4306;50.210;10.628;2023-04-22T08:53:04;4.70;;;3.15;;
8536;SDS011;4306;50.210;10.628;2023-04-22T08:55:31;7.80;;;3.33;;
8536;SDS011;4306;50.210;10.628;2023-04-22T08:57:59;6.03;;;3.10;;
8536;SDS011;4306;50.210;10.628;2023-04-22T09:00:28;4.90;;;3.17;;
8536;SDS011;4306;50.210;10.628;2023-04-22T09:02:56;6.57;;;3.70;;
8536;SDS011;4306;50.210;10.628;2023-04-22T09:05:27;4.25;;;2.88;;
8536;SDS011;4306;50.210;10.628;2023-04-22T09:07:55;4.25;;;3.22;;
8536;SDS011;4306;50.210;10.628;2023-04-22T09:10:23;9.60;;;3.20;;
8536;SDS011;4306;50.210;10.628;2023-04-22T09:12:50;5.63;;;3.03;;
8536;SDS011;4306;50.210;10.628;2023-04-22T09:15:18;4.85;;;2.85;;
8536;SDS011;4306;50.210;10.628;2023-04-22T09:17:45;11.05;;;3.35;;
8536;SDS011;4306;50.210;10.628;2023-04-22T09:20:12;6.05;;;2.75;;
8536;SDS011;4306;50.210;10.628;2023-04-22T09:22:41;9.43;;;2.95;;
8536;SDS011;4306;50.210;10.628;2023-04-22T09:25:17;6.22;;;2.95;;
8536;SDS011;4306;50.210;10.628;2023-04-22T09:27:47;6.72;;;3.33;;
8536;SDS011;4306;50.210;10.628;2023-04-22T09:30:16;7.18;;;3.13;;
8536;SDS011;4306;50.210;10.628;2023-04-22T09:32:50;5.30;;;3.20;;
8536;SDS011;4306;50.210;10.628;2023-04-22T09:35:22;5.82;;;2.85;;
8536;SDS011;4306;50.210;10.628;2023-04-22T09:37:51;6.50;;;3.20;;
8536;SDS011;4306;50.210;10.628;2023-04-22T09:40:19;5.65;;;2.38;;
8536;SDS011;4306;50.210;10.628;2023-04-22T09:42:47;5.93;;;2.50;;
8536;SDS011;4306;50.210;10.628;2023-04-22T09:45:23;4.28;;;3.08;;
8536;SDS011;4306;50.210;10.628;2023-04-22T09:47:52;4.20;;;2.80;;
8536;SDS011;4306;50.210;10.628;2023-04-22T09:50:19;3.97;;;2.45;;
8536;SDS011;4306;50.210;10.628;2023-04-22T09:52:52;4.65;;;2.97;;
8536;SDS011;4306;50.210;10.628;2023-04-22T09:55:21;4.25;;;2.50;;
8536;SDS011;4306;50.210;10.628;2023-04-22T09:57:53;4.15;;;2.78;;
8536;SDS011;4306;50.210;10.628;2023-04-22T10:00:21;4.50;;;2.50;;
8536;SDS011;4306;50.210;10.628;2023-04-22T10:02:50;5.75;;;2.92;;
8536;SDS011;4306;50.210;10.628;2023-04-22T10:05:17;4.28;;;2.97;;
8536;SDS011;4306;50.210;10.628;2023-04-22T10:07:44;4.90;;;2.38;;
8536;SDS011;4306;50.210;10.628;2023-04-22T10:10:12;4.10;;;2.70;;
8536;SDS011;4306;50.210;10.628;2023-04-22T10:12:40;5.40;;;2.42;;
8536;SDS011;4306;50.210;10.628;2023-04-22T10:15:08;5.05;;;2.58;;
8536;SDS011;4306;50.210;10.628;2023-04-22T10:17:36;4.30;;;2.80;;
8536;SDS011;4306;50.210;10.628;2023-04-22T10:20:05;5.93;;;2.50;;
8536;SDS011;4306;50.210;10.628;2023-04-22T10:22:37;5.70;;;2.67;;
8536;SDS011;4306;50.210;10.628;2023-04-22T10:25:09;4.38;;;2.92;;
8536;SDS011;4306;50.210;10.628;2023-04-22T10:27:37;5.82;;;3.05;;
8536;SDS011;4306;50.210;10.628;2023-04-22T10:30:07;4.82;;;2.58;;
8536;SDS011;4306;50.210;10.628;2023-04-22T10:32:35;4.93;;;2.58;;
8536;SDS011;4306;50.210;10.628;2023-04-22T10:35:06;6.30;;;3.15;;
8536;SDS011;4306;50.210;10.628;2023-04-22T10:37:34;5.35;;;2.17;;
8536;SDS011;4306;50.210;10.628;2023-04-22T10:40:06;4.95;;;2.83;;
8536;SDS011;4306;50.210;10.628;2023-04-22T10:42:35;4.50;;;2.40;;
8536;SDS011;4306;50.210;10.628;2023-04-22T10:45:05;5.28;;;2.60;;
8536;SDS011;4306;50.210;10.628;2023-04-22T10:47:37;3.25;;;2.15;;
8536;SDS011;4306;50.210;10.628;2023-04-22T10:50:16;6.53;;;2.50;;
8536;SDS011;4306;50.210;10.628;2023-04-22T10:52:46;4.93;;;2.75;;
8536;SDS011;4306;50.210;10.628;2023-04-22T10:55:14;22.02;;;5.50;;
8536;SDS011;4306;50.210;10.628;2023-04-22T10:57:42;5.13;;;2.17;;
8536;SDS011;4306;50.210;10.628;2023-04-22T11:00:28;4.10;;;2.47;;
8536;SDS011;4306;50.210;10.628;2023-04-22T11:03:08;4.22;;;2.13;;
8536;SDS011;4306;50.210;10.628;2023-04-22T11:05:39;3.60;;;2.35;;
8536;SDS011;4306;50.210;10.628;2023-04-22T11:08:07;4.78;;;2.30;;
8536;SDS011;4306;50.210;10.628;2023-04-22T11:10:39;4.22;;;2.10;;
8536;SDS011;4306;50.210;10.628;2023-04-22T11:13:07;4.63;;;2.25;;
8536;SDS011;4306;50.210;10.628;2023-04-22T11:15:39;4.55;;;2.17;;
8536;SDS011;4306;50.210;10.628;2023-04-22T11:18:12;3.95;;;2.05;;
8536;SDS011;4306;50.210;10.628;2023-04-22T11:20:44;4.22;;;2.10;;
8536;SDS011;4306;50.210;10.628;2023-04-22T11:23:16;3.88;;;1.80;;
8536;SDS011;4306;50.210;10.628;2023-04-22T11:25:44;3.25;;;1.75;;
8536;SDS011;4306;50.210;10.628;2023-04-22T11:28:12;6.70;;;1.80;;
8536;SDS011;4306;50.210;10.628;2023-04-22T11:30:40;2.92;;;1.95;;
8536;SDS011;4306;50.210;10.628;2023-04-22T11:33:07;3.17;;;2.15;;
8536;SDS011;4306;50.210;10.628;2023-04-22T11:35:34;8.10;;;2.30;;
8536;SDS011;4306;50.210;10.628;2023-04-22T11:38:02;4.97;;;1.95;;
8536;SDS011;4306;50.210;10.628;2023-04-22T11:40:33;5.38;;;1.77;;
8536;SDS011;4306;50.210;10.628;2023-04-22T11:43:03;7.45;;;2.15;;
8536;SDS011;4306;50.210;10.628;2023-04-22T11:45:31;4.03;;;1.80;;
8536;SDS011;4306;50.210;10.628;2023-04-22T11:48:01;3.70;;;1.83;;
8536;SDS011;4306;50.210;10.628;2023-04-22T11:50:30;4.03;;;1.73;;
8536;SDS011;4306;50.210;10.628;2023-04-22T11:52:59;3.80;;;1.85;;
8536;SDS011;4306;50.210;10.628;2023-04-22T11:55:28;2.88;;;1.60;;
8536;SDS011;4306;50.210;10.628;2023-04-22T11:57:57;4.78;;;2.35;;
8536;SDS011;4306;50.210;10.628;2023-04-22T12:00:27;2.80;;;1.90;;
8536;SDS011;4306;50.210;10.628;2023-04-22T12:02:56;3.13;;;1.83;;
8536;SDS011;4306;50.210;10.628;2023-04-22T12:05:33;2.22;;;1.50;;
8536;SDS011;4306;50.210;10.628;2023-04-22T12:08:02;3.22;;;1.40;;
8536;SDS011;4306;50.210;10.628;2023-04-22T12:10:31;3.53;;;1.75;;
8536;SDS011;4306;50.210;10.628;2023-04-22T12:12:58;3.42;;;1.52;;
8536;SDS011;4306;50.210;10.628;2023-04-22T12:15:25;2.25;;;1.60;;
8536;SDS011;4306;50.210;10.628;2023-04-22T12:18:02;5.72;;;1.95;;
8536;SDS011;4306;50.210;10.628;2023-04-22T12:20:30;4.60;;;1.75;;
8536;SDS011;4306;50.210;10.628;2023-04-22T12:22:59;3.63;;;1.77;;
8536;SDS011;4306;50.210;10.628;2023-04-22T12:25:27;3.47;;;1.67;;
8536;SDS011;4306;50.210;10.628;2023-04-22T12:27:54;2.65;;;1.50;;
8536;SDS011;4306;50.210;10.628;2023-04-22T12:30:21;6.07;;;2.25;;
8536;SDS011;4306;50.210;10.628;2023-04-22T12:32:49;4.63;;;1.90;;
8536;SDS011;4306;50.210;10.628;2023-04-22T12:35:16;4.70;;;2.03;;
8536;SDS011;4306;50.210;10.628;2023-04-22T12:37:44;3.97;;;2.13;;
8536;SDS011;4306;50.210;10.628;2023-04-22T12:40:11;4.25;;;1.92;;
8536;SDS011;4306;50.210;10.628;2023-04-22T12:42:38;3.58;;;1.90;;
8536;SDS011;4306;50.210;10.628;2023-04-22T12:45:05;2.90;;;1.90;;
8536;SDS011;4306;50.210;10.628;2023-04-22T12:47:33;4.97;;;1.90;;
8536;SDS011;4306;50.210;10.628;2023-04-22T12:50:00;2.70;;;1.75;;
8536;SDS011;4306;50.210;10.628;2023-04-22T12:52:30;4.07;;;1.75;;
8536;SDS011;4306;50.210;10.628;2023-04-22T12:54:59;3.60;;;1.67;;
8536;SDS011;4306;50.210;10.628;2023-04-22T12:57:26;2.17;;;1.67;;
8536;SDS011;4306;50.210;10.628;2023-04-22T12:59:53;2.40;;;1.60;;
8536;SDS011;4306;50.210;10.628;2023-04-22T13:02:20;3.33;;;2.00;;
8536;SDS011;4306;50.210;10.628;2023-04-22T13:04:47;3.80;;;2.00;;
8536;SDS011;4306;50.210;10.628;2023-04-22T13:07:14;3.50;;;1.85;;
8536;SDS011;4306;50.210;10.628;2023-04-22T13:09:42;3.92;;;2.55;;
8536;SDS011;4306;50.210;10.628;2023-04-22T13:12:10;4.05;;;2.15;;
8536;SDS011;4306;50.210;10.628;2023-04-22T13:14:37;3.75;;;2.15;;
8536;SDS011;4306;50.210;10.628;2023-04-22T13:17:04;7.57;;;5.70;;
8536;SDS011;4306;50.210;10.628;2023-04-22T13:19:31;7.43;;;2.08;;
8536;SDS011;4306;50.210;10.628;2023-04-22T13:21:59;5.65;;;2.47;;
8536;SDS011;4306;50.210;10.628;2023-04-22T13:24:27;4.03;;;2.30;;
8536;SDS011;4306;50.210;10.628;2023-04-22T13:26:54;3.40;;;1.80;;
8536;SDS011;4306;50.210;10.628;2023-04-22T13:29:24;4.53;;;2.13;;
8536;SDS011;4306;50.210;10.628;2023-04-22T13:31:51;2.85;;;2.03;;
8536;SDS011;4306;50.210;10.628;2023-04-22T13:34:18;6.13;;;2.30;;
8536;SDS011;4306;50.210;10.628;2023-04-22T13:36:45;2.80;;;1.80;;
8536;SDS011;4306;50.210;10.628;2023-04-22T13:39:12;2.50;;;1.98;;
8536;SDS011;4306;50.210;10.628;2023-04-22T13:41:39;3.03;;;1.77;;
8536;SDS011;4306;50.210;10.628;2023-04-22T13:44:06;3.45;;;1.88;;
8536;SDS011;4306;50.210;10.628;2023-04-22T13:46:37;2.78;;;1.80;;
8536;SDS011;4306;50.210;10.628;2023-04-22T13:49:04;3.00;;;1.60;;
8536;SDS011;4306;50.210;10.628;2023-04-22T13:51:31;3.63;;;1.65;;
8536;SDS011;4306;50.210;10.628;2023-04-22T13:53:58;2.80;;;1.60;;
8536;SDS011;4306;50.210;10.628;2023-04-22T13:56:25;3.22;;;1.90;;
8536;SDS011;4306;50.210;10.628;2023-04-22T13:58:52;3.65;;;1.45;;
8536;SDS011;4306;50.210;10.628;2023-04-22T14:01:19;7.35;;;2.15;;
8536;SDS011;4306;50.210;10.628;2023-04-22T14:03:48;2.70;;;1.45;;
8536;SDS011;4306;50.210;10.628;2023-04-22T14:06:15;5.00;;;1.83;;
8536;SDS011;4306;50.210;10.628;2023-04-22T14:08:42;3.85;;;1.50;;
8536;SDS011;4306;50.210;10.628;2023-04-22T14:11:09;6.45;;;1.52;;
8536;SDS011;4306;50.210;10.628;2023-04-22T14:13:37;3.47;;;1.77;;
8536;SDS011;4306;50.210;10.628;2023-04-22T14:16:04;3.42;;;1.45;;
8536;SDS011;4306;50.210;10.628;2023-04-22T14:18:33;2.67;;;1.50;;
8536;SDS011;4306;50.210;10.628;2023-04-22T14:21:03;2.13;;;1.35;;
8536;SDS011;4306;50.210;10.628;2023-04-22T14:23:31;2.70;;;1.60;;
8536;SDS011;4306;50.210;10.628;2023-04-22T14:25:58;2.50;;;1.60;;
8536;SDS011;4306;50.210;10.628;2023-04-22T14:28:25;2.80;;;1.98;;
8536;SDS011;4306;50.210;10.628;2023-04-22T14:30:53;3.72;;;1.85;;
8536;SDS011;4306;50.210;10.628;2023-04-22T14:33:24;4.85;;;1.80;;
8536;SDS011;4306;50.210;10.628;2023-04-22T14:35:52;2.50;;;1.70;;
8536;SDS011;4306;50.210;10.628;2023-04-22T14:38:22;4.07;;;1.60;;
8536;SDS011;4306;50.210;10.628;2023-04-22T14:40:49;2.80;;;1.83;;
8536;SDS011;4306;50.210;10.628;2023-04-22T14:43:17;3.30;;;2.10;;
8536;SDS011;4306;50.210;10.628;2023-04-22T14:45:44;4.25;;;1.75;;
8536;SDS011;4306;50.210;10.628;2023-04-22T14:48:11;2.75;;;1.75;;
8536;SDS011;4306;50.210;10.628;2023-04-22T14:50:38;5.03;;;1.77;;
8536;SDS011;4306;50.210;10.628;2023-04-22T14:53:07;5.13;;;2.90;;
8536;SDS011;4306;50.210;10.628;2023-04-22T14:55:39;2.70;;;1.90;;
8536;SDS011;4306;50.210;10.628;2023-04-22T14:58:08;3.42;;;1.75;;
8536;SDS011;4306;50.210;10.628;2023-04-22T15:00:35;3.88;;;1.60;;
8536;SDS011;4306;50.210;10.628;2023-04-22T15:03:03;2.85;;;1.60;;
8536;SDS011;4306;50.210;10.628;2023-04-22T15:05:58;3.33;;;1.45;;